sensor_id;sensor_type;location;lat;lon;timestamp;temperature;humidity
5200;DHT22;2619;47.868;11.892;2022-12-10T00:00:18;0.70;99.90
5200;DHT22;2619;47.868;11.892;2022-12-10T00:02:43;0.60;99.90
5200;DHT22;2619;47.868;11.892;2022-12-10T00:05:09;0.60;99.90
5200;DHT22;2619;47.868;11.892;2022-12-10T00:07:35;0.60;99.90
5200;DHT22;2619;47.868;11.892;2022-12-10T00:10:00;0.60;99.90
5200;DHT22;2619;47.868;11.892;2022-12-10T00:12:26;0.60;99.90
5200;DHT22;2619;47.868;11.892;2022-12-10T00:14:52;0.70;99.90
5200;DHT22;2619;47.868;11.892;2022-12-10T00:17:17;0.70;99.90
5200;DHT22;2619;47.868;11.892;2022-12-10T00:19:43;0.60;99.90
5200;DHT22;2619;47.868;11.892;2022-12-10T00:22:08;0.60;99.90
5200;DHT22;2619;47.868;11.892;2022-12-10T00:24:34;0.70;99.90
5200;DHT22;2619;47.868;11.892;2022-12-10T00:26:59;0.70;99.90
5200;DHT22;2619;47.868;11.892;2022-12-10T00:29:25;0.60;99.90
5200;DHT22;2619;47.868;11.892;2022-12-10T00:31:51;0.70;99.90
5200;DHT22;2619;47.868;11.892;2022-12-10T00:34:16;0.60;99.90
5200;DHT22;2619;47.868;11.892;2022-12-10T00:36:44;0.60;99.90
5200;DHT22;2619;47.868;11.892;2022-12-10T00:39:13;0.60;99.90
5200;DHT22;2619;47.868;11.892;2022-12-10T00:41:39;0.60;99.90
5200;DHT22;2619;47.868;11.892;2022-12-10T00:44:04;0.70;99.90
5200;DHT22;2619;47.868;11.892;2022-12-10T00:46:30;0.70;99.90
5200;DHT22;2619;47.868;11.892;2022-12-10T00:48:58;0.70;99.90
5200;DHT22;2619;47.868;11.892;2022-12-10T00:51:25;0.70;99.90
5200;DHT22;2619;47.868;11.892;2022-12-10T00:53:53;0.70;99.90
5200;DHT22;2619;47.868;11.892;2022-12-10T00:56:21;0.70;99.90
5200;DHT22;2619;47.868;11.892;2022-12-10T00:58:48;0.70;99.90
5200;DHT22;2619;47.868;11.892;2022-12-10T01:03:47;0.70;99.90
5200;DHT22;2619;47.868;11.892;2022-12-10T01:08:45;0.70;99.90
5200;DHT22;2619;47.868;11.892;2022-12-10T01:11:12;0.70;99.90
5200;DHT22;2619;47.868;11.892;2022-12-10T01:13:38;0.70;99.90
5200;DHT22;2619;47.868;11.892;2022-12-10T01:16:06;0.70;99.90
5200;DHT22;2619;47.868;11.892;2022-12-10T01:18:32;0.80;99.90
5200;DHT22;2619;47.868;11.892;2022-12-10T01:21:08;0.80;99.90
5200;DHT22;2619;47.868;11.892;2022-12-10T01:23:35;0.80;99.90
5200;DHT22;2619;47.868;11.892;2022-12-10T01:26:04;0.70;99.90
5200;DHT22;2619;47.868;11.892;2022-12-10T01:28:31;0.60;99.90
5200;DHT22;2619;47.868;11.892;2022-12-10T01:31:03;0.70;99.90
5200;DHT22;2619;47.868;11.892;2022-12-10T01:33:30;0.60;99.90
5200;DHT22;2619;47.868;11.892;2022-12-10T01:36:01;0.60;99.90
5200;DHT22;2619;47.868;11.892;2022-12-10T01:38:27;0.60;99.90
5200;DHT22;2619;47.868;11.892;2022-12-10T01:40:52;0.70;99.90
5200;DHT22;2619;47.868;11.892;2022-12-10T01:43:18;0.70;99.90
5200;DHT22;2619;47.868;11.892;2022-12-10T01:45:44;0.70;99.90
5200;DHT22;2619;47.868;11.892;2022-12-10T01:48:09;0.70;99.90
5200;DHT22;2619;47.868;11.892;2022-12-10T01:50:36;0.70;99.90
5200;DHT22;2619;47.868;11.892;2022-12-10T01:53:02;0.70;99.90
5200;DHT22;2619;47.868;11.892;2022-12-10T01:55:45;0.70;99.90
5200;DHT22;2619;47.868;11.892;2022-12-10T01:58:13;0.70;99.90
5200;DHT22;2619;47.868;11.892;2022-12-10T02:00:45;0.70;99.90
5200;DHT22;2619;47.868;11.892;2022-12-10T02:03:20;0.80;99.90
5200;DHT22;2619;47.868;11.892;2022-12-10T02:06:03;0.80;99.90
5200;DHT22;2619;47.868;11.892;2022-12-10T02:08:44;0.80;99.90
5200;DHT22;2619;47.868;11.892;2022-12-10T02:11:29;0.80;99.90
5200;DHT22;2619;47.868;11.892;2022-12-10T02:14:01;0.80;99.90
5200;DHT22;2619;47.868;11.892;2022-12-10T02:16:37;0.80;99.90
5200;DHT22;2619;47.868;11.892;2022-12-10T02:21:40;0.80;99.90
5200;DHT22;2619;47.868;11.892;2022-12-10T02:24:10;0.80;99.90
5200;DHT22;2619;47.868;11.892;2022-12-10T02:27:14;0.80;99.90
5200;DHT22;2619;47.868;11.892;2022-12-10T02:29:38;0.80;99.90
5200;DHT22;2619;47.868;11.892;2022-12-10T02:32:23;0.90;99.90
5200;DHT22;2619;47.868;11.892;2022-12-10T02:34:53;0.90;99.90
5200;DHT22;2619;47.868;11.892;2022-12-10T02:37:33;0.90;99.90
5200;DHT22;2619;47.868;11.892;2022-12-10T02:40:08;0.80;99.90
5200;DHT22;2619;47.868;11.892;2022-12-10T02:42:38;0.80;99.90
5200;DHT22;2619;47.868;11.892;2022-12-10T02:45:05;0.80;99.90
5200;DHT22;2619;47.868;11.892;2022-12-10T02:47:32;0.80;99.90
5200;DHT22;2619;47.868;11.892;2022-12-10T02:49:58;0.80;99.90
5200;DHT22;2619;47.868;11.892;2022-12-10T02:52:24;0.70;99.90
5200;DHT22;2619;47.868;11.892;2022-12-10T02:54:51;0.80;99.90
5200;DHT22;2619;47.868;11.892;2022-12-10T02:57:31;0.80;99.90
5200;DHT22;2619;47.868;11.892;2022-12-10T03:00:13;0.80;99.90
5200;DHT22;2619;47.868;11.892;2022-12-10T03:03:16;0.90;99.90
5200;DHT22;2619;47.868;11.892;2022-12-10T03:08:25;0.80;99.90
5200;DHT22;2619;47.868;11.892;2022-12-10T03:11:14;0.80;99.90
5200;DHT22;2619;47.868;11.892;2022-12-10T03:14:00;0.80;99.90
5200;DHT22;2619;47.868;11.892;2022-12-10T03:16:29;0.80;99.90
5200;DHT22;2619;47.868;11.892;2022-12-10T03:18:59;0.80;99.90
5200;DHT22;2619;47.868;11.892;2022-12-10T03:21:26;0.80;99.90
5200;DHT22;2619;47.868;11.892;2022-12-10T03:23:54;0.70;99.90
5200;DHT22;2619;47.868;11.892;2022-12-10T03:26:21;0.80;99.90
5200;DHT22;2619;47.868;11.892;2022-12-10T03:28:50;0.80;99.90
5200;DHT22;2619;47.868;11.892;2022-12-10T03:31:18;0.70;99.90
5200;DHT22;2619;47.868;11.892;2022-12-10T03:33:45;0.70;99.90
5200;DHT22;2619;47.868;11.892;2022-12-10T03:36:12;0.80;99.90
5200;DHT22;2619;47.868;11.892;2022-12-10T03:38:39;0.80;99.90
5200;DHT22;2619;47.868;11.892;2022-12-10T03:41:05;0.70;99.90
5200;DHT22;2619;47.868;11.892;2022-12-10T03:43:31;0.70;99.90
5200;DHT22;2619;47.868;11.892;2022-12-10T03:45:56;0.70;99.90
5200;DHT22;2619;47.868;11.892;2022-12-10T03:48:22;0.70;99.90
5200;DHT22;2619;47.868;11.892;2022-12-10T03:50:47;0.70;99.90
5200;DHT22;2619;47.868;11.892;2022-12-10T03:53:13;0.70;99.90
5200;DHT22;2619;47.868;11.892;2022-12-10T03:55:39;0.60;99.90
5200;DHT22;2619;47.868;11.892;2022-12-10T03:58:05;0.60;99.90
5200;DHT22;2619;47.868;11.892;2022-12-10T04:00:30;0.60;99.90
5200;DHT22;2619;47.868;11.892;2022-12-10T04:02:56;0.60;99.90
5200;DHT22;2619;47.868;11.892;2022-12-10T04:05:21;0.60;99.90
5200;DHT22;2619;47.868;11.892;2022-12-10T04:07:47;0.60;99.90
5200;DHT22;2619;47.868;11.892;2022-12-10T04:10:13;0.50;99.90
5200;DHT22;2619;47.868;11.892;2022-12-10T04:12:38;0.60;99.90
5200;DHT22;2619;47.868;11.892;2022-12-10T04:15:04;0.60;99.90
5200;DHT22;2619;47.868;11.892;2022-12-10T04:17:59;0.50;99.90
5200;DHT22;2619;47.868;11.892;2022-12-10T04:20:24;0.50;99.90
5200;DHT22;2619;47.868;11.892;2022-12-10T04:23:08;0.50;99.90
5200;DHT22;2619;47.868;11.892;2022-12-10T04:25:52;0.50;99.90
5200;DHT22;2619;47.868;11.892;2022-12-10T04:28:37;0.50;99.90
5200;DHT22;2619;47.868;11.892;2022-12-10T04:31:02;0.40;99.90
5200;DHT22;2619;47.868;11.892;2022-12-10T04:33:28;0.40;99.90
5200;DHT22;2619;47.868;11.892;2022-12-10T04:35:53;0.40;99.90
5200;DHT22;2619;47.868;11.892;2022-12-10T04:38:19;0.40;99.90
5200;DHT22;2619;47.868;11.892;2022-12-10T04:40:44;0.40;99.90
5200;DHT22;2619;47.868;11.892;2022-12-10T04:43:10;0.50;99.90
5200;DHT22;2619;47.868;11.892;2022-12-10T04:45:35;0.40;99.90
5200;DHT22;2619;47.868;11.892;2022-12-10T04:48:01;0.40;99.90
5200;DHT22;2619;47.868;11.892;2022-12-10T04:50:27;0.40;99.90
5200;DHT22;2619;47.868;11.892;2022-12-10T04:52:52;0.40;99.90
5200;DHT22;2619;47.868;11.892;2022-12-10T04:55:18;0.40;99.90
5200;DHT22;2619;47.868;11.892;2022-12-10T04:57:43;0.40;99.90
5200;DHT22;2619;47.868;11.892;2022-12-10T05:00:10;0.40;99.90
5200;DHT22;2619;47.868;11.892;2022-12-10T05:02:35;0.40;99.90
5200;DHT22;2619;47.868;11.892;2022-12-10T05:05:01;0.40;99.90
5200;DHT22;2619;47.868;11.892;2022-12-10T05:07:26;0.50;99.90
5200;DHT22;2619;47.868;11.892;2022-12-10T05:09:52;0.50;99.90
5200;DHT22;2619;47.868;11.892;2022-12-10T05:12:18;0.50;99.90
5200;DHT22;2619;47.868;11.892;2022-12-10T05:14:43;0.50;99.90
5200;DHT22;2619;47.868;11.892;2022-12-10T05:17:09;0.50;99.90
5200;DHT22;2619;47.868;11.892;2022-12-10T05:19:34;0.50;99.90
5200;DHT22;2619;47.868;11.892;2022-12-10T05:22:00;0.60;99.90
5200;DHT22;2619;47.868;11.892;2022-12-10T05:24:44;0.60;99.90
5200;DHT22;2619;47.868;11.892;2022-12-10T05:27:09;0.60;99.90
5200;DHT22;2619;47.868;11.892;2022-12-10T05:29:35;0.60;99.90
5200;DHT22;2619;47.868;11.892;2022-12-10T05:32:02;0.70;99.90
5200;DHT22;2619;47.868;11.892;2022-12-10T05:34:28;0.70;99.90
5200;DHT22;2619;47.868;11.892;2022-12-10T05:36:54;0.60;99.90
5200;DHT22;2619;47.868;11.892;2022-12-10T05:39:19;0.70;99.90
5200;DHT22;2619;47.868;11.892;2022-12-10T05:41:45;0.70;99.90
5200;DHT22;2619;47.868;11.892;2022-12-10T05:44:11;0.70;99.90
5200;DHT22;2619;47.868;11.892;2022-12-10T05:46:37;0.70;99.90
5200;DHT22;2619;47.868;11.892;2022-12-10T05:49:04;0.60;99.90
5200;DHT22;2619;47.868;11.892;2022-12-10T05:51:32;0.60;99.90
5200;DHT22;2619;47.868;11.892;2022-12-10T05:53:59;0.70;99.90
5200;DHT22;2619;47.868;11.892;2022-12-10T05:56:26;0.60;99.90
5200;DHT22;2619;47.868;11.892;2022-12-10T05:58:54;0.60;99.90
5200;DHT22;2619;47.868;11.892;2022-12-10T06:01:24;0.60;99.90
5200;DHT22;2619;47.868;11.892;2022-12-10T06:03:50;0.60;99.90
5200;DHT22;2619;47.868;11.892;2022-12-10T06:06:25;0.60;99.90
5200;DHT22;2619;47.868;11.892;2022-12-10T06:08:52;0.70;99.90
5200;DHT22;2619;47.868;11.892;2022-12-10T06:11:18;0.70;99.90
5200;DHT22;2619;47.868;11.892;2022-12-10T06:13:44;0.70;99.90
5200;DHT22;2619;47.868;11.892;2022-12-10T06:16:12;0.70;99.90
5200;DHT22;2619;47.868;11.892;2022-12-10T06:18:38;0.60;99.90
5200;DHT22;2619;47.868;11.892;2022-12-10T06:21:05;0.60;99.90
5200;DHT22;2619;47.868;11.892;2022-12-10T06:23:34;0.70;99.90
5200;DHT22;2619;47.868;11.892;2022-12-10T06:26:06;0.70;99.90
5200;DHT22;2619;47.868;11.892;2022-12-10T06:28:32;0.70;99.90
5200;DHT22;2619;47.868;11.892;2022-12-10T06:30:59;0.70;99.90
5200;DHT22;2619;47.868;11.892;2022-12-10T06:33:25;0.70;99.90
5200;DHT22;2619;47.868;11.892;2022-12-10T06:35:51;0.70;99.90
5200;DHT22;2619;47.868;11.892;2022-12-10T06:38:17;0.60;99.90
5200;DHT22;2619;47.868;11.892;2022-12-10T06:40:42;0.70;99.90
5200;DHT22;2619;47.868;11.892;2022-12-10T06:43:08;0.60;99.90
5200;DHT22;2619;47.868;11.892;2022-12-10T06:45:33;0.60;99.90
5200;DHT22;2619;47.868;11.892;2022-12-10T06:48:03;0.60;99.90
5200;DHT22;2619;47.868;11.892;2022-12-10T06:50:28;0.60;99.90
5200;DHT22;2619;47.868;11.892;2022-12-10T06:52:54;0.60;99.90
5200;DHT22;2619;47.868;11.892;2022-12-10T06:55:19;0.50;99.90
5200;DHT22;2619;47.868;11.892;2022-12-10T06:57:45;0.60;99.90
5200;DHT22;2619;47.868;11.892;2022-12-10T07:00:11;0.60;99.90
5200;DHT22;2619;47.868;11.892;2022-12-10T07:02:37;0.60;99.90
5200;DHT22;2619;47.868;11.892;2022-12-10T07:05:03;0.70;99.90
5200;DHT22;2619;47.868;11.892;2022-12-10T07:07:28;0.60;99.90
5200;DHT22;2619;47.868;11.892;2022-12-10T07:09:54;0.60;99.90
5200;DHT22;2619;47.868;11.892;2022-12-10T07:12:19;0.70;99.90
5200;DHT22;2619;47.868;11.892;2022-12-10T07:14:45;0.70;99.90
5200;DHT22;2619;47.868;11.892;2022-12-10T07:17:10;0.70;99.90
5200;DHT22;2619;47.868;11.892;2022-12-10T07:19:36;0.70;99.90
5200;DHT22;2619;47.868;11.892;2022-12-10T07:22:02;0.70;99.90
5200;DHT22;2619;47.868;11.892;2022-12-10T07:24:27;0.70;99.90
5200;DHT22;2619;47.868;11.892;2022-12-10T07:26:53;0.70;99.90
5200;DHT22;2619;47.868;11.892;2022-12-10T07:29:20;0.70;99.90
5200;DHT22;2619;47.868;11.892;2022-12-10T07:31:47;0.70;99.90
5200;DHT22;2619;47.868;11.892;2022-12-10T07:34:13;0.80;99.90
5200;DHT22;2619;47.868;11.892;2022-12-10T07:36:40;0.70;99.90
5200;DHT22;2619;47.868;11.892;2022-12-10T07:39:08;0.70;99.90
5200;DHT22;2619;47.868;11.892;2022-12-10T07:41:34;0.80;99.90
5200;DHT22;2619;47.868;11.892;2022-12-10T07:44:02;0.80;99.90
5200;DHT22;2619;47.868;11.892;2022-12-10T07:46:30;0.80;99.90
5200;DHT22;2619;47.868;11.892;2022-12-10T07:48:59;0.80;99.90
5200;DHT22;2619;47.868;11.892;2022-12-10T07:51:25;0.80;99.90
5200;DHT22;2619;47.868;11.892;2022-12-10T07:53:52;0.80;99.90
5200;DHT22;2619;47.868;11.892;2022-12-10T07:56:19;0.80;99.90
5200;DHT22;2619;47.868;11.892;2022-12-10T07:58:46;0.80;99.90
5200;DHT22;2619;47.868;11.892;2022-12-10T08:01:15;0.80;99.90
5200;DHT22;2619;47.868;11.892;2022-12-10T08:03:41;0.80;99.90
5200;DHT22;2619;47.868;11.892;2022-12-10T08:06:09;0.80;99.90
5200;DHT22;2619;47.868;11.892;2022-12-10T08:08:36;0.70;99.90
5200;DHT22;2619;47.868;11.892;2022-12-10T08:11:02;0.70;99.90
5200;DHT22;2619;47.868;11.892;2022-12-10T08:13:29;0.80;99.90
5200;DHT22;2619;47.868;11.892;2022-12-10T08:16:01;0.80;99.90
5200;DHT22;2619;47.868;11.892;2022-12-10T08:18:27;0.90;99.90
5200;DHT22;2619;47.868;11.892;2022-12-10T08:20:52;0.90;99.90
5200;DHT22;2619;47.868;11.892;2022-12-10T08:23:18;0.90;99.90
5200;DHT22;2619;47.868;11.892;2022-12-10T08:25:43;0.90;99.90
5200;DHT22;2619;47.868;11.892;2022-12-10T08:28:09;1.00;99.90
5200;DHT22;2619;47.868;11.892;2022-12-10T08:30:35;1.10;99.90
5200;DHT22;2619;47.868;11.892;2022-12-10T08:33:00;1.00;99.90
5200;DHT22;2619;47.868;11.892;2022-12-10T08:35:26;0.90;99.90
5200;DHT22;2619;47.868;11.892;2022-12-10T08:37:51;1.00;99.90
5200;DHT22;2619;47.868;11.892;2022-12-10T08:40:17;1.00;99.90
5200;DHT22;2619;47.868;11.892;2022-12-10T08:42:43;1.00;99.90
5200;DHT22;2619;47.868;11.892;2022-12-10T08:45:09;1.00;99.90
5200;DHT22;2619;47.868;11.892;2022-12-10T08:47:34;1.00;99.90
5200;DHT22;2619;47.868;11.892;2022-12-10T08:50:00;1.00;99.90
5200;DHT22;2619;47.868;11.892;2022-12-10T08:52:26;1.10;99.90
5200;DHT22;2619;47.868;11.892;2022-12-10T08:54:54;1.10;99.90
5200;DHT22;2619;47.868;11.892;2022-12-10T08:57:20;1.10;99.90
5200;DHT22;2619;47.868;11.892;2022-12-10T08:59:45;1.10;99.90
5200;DHT22;2619;47.868;11.892;2022-12-10T09:02:11;1.10;99.90
5200;DHT22;2619;47.868;11.892;2022-12-10T09:04:37;1.20;99.90
5200;DHT22;2619;47.868;11.892;2022-12-10T09:07:04;1.20;99.90
5200;DHT22;2619;47.868;11.892;2022-12-10T09:09:31;1.20;99.90
5200;DHT22;2619;47.868;11.892;2022-12-10T09:11:57;1.20;99.90
5200;DHT22;2619;47.868;11.892;2022-12-10T09:14:23;1.20;99.90
5200;DHT22;2619;47.868;11.892;2022-12-10T09:16:49;1.20;99.90
5200;DHT22;2619;47.868;11.892;2022-12-10T09:19:14;1.20;99.90
5200;DHT22;2619;47.868;11.892;2022-12-10T09:21:40;1.30;99.90
5200;DHT22;2619;47.868;11.892;2022-12-10T09:24:06;1.30;99.90
5200;DHT22;2619;47.868;11.892;2022-12-10T09:26:32;1.40;99.90
5200;DHT22;2619;47.868;11.892;2022-12-10T09:28:57;1.40;99.90
5200;DHT22;2619;47.868;11.892;2022-12-10T09:31:23;1.40;99.90
5200;DHT22;2619;47.868;11.892;2022-12-10T09:33:51;1.40;99.90
5200;DHT22;2619;47.868;11.892;2022-12-10T09:36:18;1.50;99.90
5200;DHT22;2619;47.868;11.892;2022-12-10T09:38:45;1.50;99.90
5200;DHT22;2619;47.868;11.892;2022-12-10T09:41:16;1.50;99.90
5200;DHT22;2619;47.868;11.892;2022-12-10T09:43:52;1.50;99.90
5200;DHT22;2619;47.868;11.892;2022-12-10T09:49:37;1.50;99.90
5200;DHT22;2619;47.868;11.892;2022-12-10T09:52:05;1.50;99.90
5200;DHT22;2619;47.868;11.892;2022-12-10T09:54:35;1.50;99.90
5200;DHT22;2619;47.868;11.892;2022-12-10T09:57:03;1.50;99.90
5200;DHT22;2619;47.868;11.892;2022-12-10T09:59:37;1.60;99.90
5200;DHT22;2619;47.868;11.892;2022-12-10T10:02:20;1.50;99.90
5200;DHT22;2619;47.868;11.892;2022-12-10T10:04:47;1.50;99.90
5200;DHT22;2619;47.868;11.892;2022-12-10T10:07:28;1.50;99.90
5200;DHT22;2619;47.868;11.892;2022-12-10T10:09:59;1.50;99.90
5200;DHT22;2619;47.868;11.892;2022-12-10T10:12:31;1.50;99.90
5200;DHT22;2619;47.868;11.892;2022-12-10T10:14:57;1.50;99.90
5200;DHT22;2619;47.868;11.892;2022-12-10T10:17:33;1.50;99.90
5200;DHT22;2619;47.868;11.892;2022-12-10T10:20:00;1.60;99.90
5200;DHT22;2619;47.868;11.892;2022-12-10T10:22:26;1.70;99.90
5200;DHT22;2619;47.868;11.892;2022-12-10T10:24:52;1.70;99.90
5200;DHT22;2619;47.868;11.892;2022-12-10T10:27:22;1.80;99.90
5200;DHT22;2619;47.868;11.892;2022-12-10T10:29:51;1.80;99.90
5200;DHT22;2619;47.868;11.892;2022-12-10T10:32:22;1.90;99.90
5200;DHT22;2619;47.868;11.892;2022-12-10T10:34:57;2.00;99.90
5200;DHT22;2619;47.868;11.892;2022-12-10T10:37:29;2.00;99.90
5200;DHT22;2619;47.868;11.892;2022-12-10T10:39:57;2.00;99.90
5200;DHT22;2619;47.868;11.892;2022-12-10T10:44:58;2.00;99.90
5200;DHT22;2619;47.868;11.892;2022-12-10T10:47:27;2.10;99.90
5200;DHT22;2619;47.868;11.892;2022-12-10T10:49:53;2.00;99.90
5200;DHT22;2619;47.868;11.892;2022-12-10T10:52:19;2.10;99.90
5200;DHT22;2619;47.868;11.892;2022-12-10T10:54:46;2.10;99.90
5200;DHT22;2619;47.868;11.892;2022-12-10T10:59:47;2.20;99.90
5200;DHT22;2619;47.868;11.892;2022-12-10T11:02:28;2.20;99.90
5200;DHT22;2619;47.868;11.892;2022-12-10T11:04:55;2.20;99.90
5200;DHT22;2619;47.868;11.892;2022-12-10T11:07:33;2.20;99.90
5200;DHT22;2619;47.868;11.892;2022-12-10T11:10:00;2.20;99.90
5200;DHT22;2619;47.868;11.892;2022-12-10T11:14:59;2.20;99.90
5200;DHT22;2619;47.868;11.892;2022-12-10T11:17:26;2.20;99.90
5200;DHT22;2619;47.868;11.892;2022-12-10T11:20:02;2.10;99.90
5200;DHT22;2619;47.868;11.892;2022-12-10T11:22:52;2.10;99.90
5200;DHT22;2619;47.868;11.892;2022-12-10T11:26:01;2.20;99.90
5200;DHT22;2619;47.868;11.892;2022-12-10T11:34:35;2.30;99.90
5200;DHT22;2619;47.868;11.892;2022-12-10T11:37:17;2.30;99.90
5200;DHT22;2619;47.868;11.892;2022-12-10T11:48:50;1.90;99.90
5200;DHT22;2619;47.868;11.892;2022-12-10T11:51:29;1.80;99.90
5200;DHT22;2619;47.868;11.892;2022-12-10T11:56:48;1.70;99.90
5200;DHT22;2619;47.868;11.892;2022-12-10T12:15:31;2.00;99.90
5200;DHT22;2619;47.868;11.892;2022-12-10T12:20:49;2.00;99.90
5200;DHT22;2619;47.868;11.892;2022-12-10T12:23:43;2.00;99.90
5200;DHT22;2619;47.868;11.892;2022-12-10T12:31:41;1.60;99.90
5200;DHT22;2619;47.868;11.892;2022-12-10T12:34:25;1.40;99.90
5200;DHT22;2619;47.868;11.892;2022-12-10T12:36:52;1.30;99.90
5200;DHT22;2619;47.868;11.892;2022-12-10T12:49:54;1.60;99.90
5200;DHT22;2619;47.868;11.892;2022-12-10T12:54:58;1.70;99.90
5200;DHT22;2619;47.868;11.892;2022-12-10T12:57:41;1.80;99.90
5200;DHT22;2619;47.868;11.892;2022-12-10T13:00:17;1.70;99.90
5200;DHT22;2619;47.868;11.892;2022-12-10T13:03:00;1.80;99.90
5200;DHT22;2619;47.868;11.892;2022-12-10T13:05:36;1.90;99.90
5200;DHT22;2619;47.868;11.892;2022-12-10T13:10:52;1.90;99.90
5200;DHT22;2619;47.868;11.892;2022-12-10T13:13:22;1.90;99.90
5200;DHT22;2619;47.868;11.892;2022-12-10T13:15:49;1.90;99.90
5200;DHT22;2619;47.868;11.892;2022-12-10T13:23:48;1.90;99.90
5200;DHT22;2619;47.868;11.892;2022-12-10T13:26:33;1.80;99.90
5200;DHT22;2619;47.868;11.892;2022-12-10T13:29:23;1.80;99.90
5200;DHT22;2619;47.868;11.892;2022-12-10T13:32:03;1.70;99.90
5200;DHT22;2619;47.868;11.892;2022-12-10T13:34:35;1.80;99.90
5200;DHT22;2619;47.868;11.892;2022-12-10T13:39:34;1.70;99.90
5200;DHT22;2619;47.868;11.892;2022-12-10T13:45:01;1.70;99.90
5200;DHT22;2619;47.868;11.892;2022-12-10T13:55:40;1.60;99.90
5200;DHT22;2619;47.868;11.892;2022-12-10T13:58:31;1.60;99.90
5200;DHT22;2619;47.868;11.892;2022-12-10T14:01:15;1.60;99.90
5200;DHT22;2619;47.868;11.892;2022-12-10T14:04:07;1.50;99.90
5200;DHT22;2619;47.868;11.892;2022-12-10T14:06:39;1.50;99.90
5200;DHT22;2619;47.868;11.892;2022-12-10T14:12:17;1.50;99.90
5200;DHT22;2619;47.868;11.892;2022-12-10T14:14:46;1.50;99.90
5200;DHT22;2619;47.868;11.892;2022-12-10T14:17:16;1.40;99.90
5200;DHT22;2619;47.868;11.892;2022-12-10T14:19:46;1.40;99.90
5200;DHT22;2619;47.868;11.892;2022-12-10T14:22:23;1.40;99.90
5200;DHT22;2619;47.868;11.892;2022-12-10T14:24:50;1.40;99.90
5200;DHT22;2619;47.868;11.892;2022-12-10T14:27:23;1.30;99.90
5200;DHT22;2619;47.868;11.892;2022-12-10T14:29:51;1.30;99.90
5200;DHT22;2619;47.868;11.892;2022-12-10T14:32:20;1.30;99.90
5200;DHT22;2619;47.868;11.892;2022-12-10T14:34:54;1.30;99.90
5200;DHT22;2619;47.868;11.892;2022-12-10T14:37:24;1.20;99.90
5200;DHT22;2619;47.868;11.892;2022-12-10T14:39:51;1.20;99.90
5200;DHT22;2619;47.868;11.892;2022-12-10T14:42:18;1.20;99.90
5200;DHT22;2619;47.868;11.892;2022-12-10T14:44:44;1.10;99.90
5200;DHT22;2619;47.868;11.892;2022-12-10T14:47:18;1.10;99.90
5200;DHT22;2619;47.868;11.892;2022-12-10T14:49:46;1.10;99.90
5200;DHT22;2619;47.868;11.892;2022-12-10T14:52:30;1.10;99.90
5200;DHT22;2619;47.868;11.892;2022-12-10T14:54:58;1.00;99.90
5200;DHT22;2619;47.868;11.892;2022-12-10T14:57:33;1.00;99.90
5200;DHT22;2619;47.868;11.892;2022-12-10T15:02:41;1.00;99.90
5200;DHT22;2619;47.868;11.892;2022-12-10T15:05:15;0.90;99.90
5200;DHT22;2619;47.868;11.892;2022-12-10T15:07:42;0.90;99.90
5200;DHT22;2619;47.868;11.892;2022-12-10T15:10:19;0.90;99.90
5200;DHT22;2619;47.868;11.892;2022-12-10T15:12:48;0.90;99.90
5200;DHT22;2619;47.868;11.892;2022-12-10T15:15:36;0.90;99.90
5200;DHT22;2619;47.868;11.892;2022-12-10T15:21:02;0.90;99.90
5200;DHT22;2619;47.868;11.892;2022-12-10T15:28:37;0.80;99.90
5200;DHT22;2619;47.868;11.892;2022-12-10T15:34:06;0.80;99.90
5200;DHT22;2619;47.868;11.892;2022-12-10T15:36:54;0.80;99.90
5200;DHT22;2619;47.868;11.892;2022-12-10T15:39:32;0.70;99.90
5200;DHT22;2619;47.868;11.892;2022-12-10T15:45:26;0.80;99.90
5200;DHT22;2619;47.868;11.892;2022-12-10T15:47:54;0.70;99.90
5200;DHT22;2619;47.868;11.892;2022-12-10T15:50:21;0.80;99.90
5200;DHT22;2619;47.868;11.892;2022-12-10T15:52:47;0.70;99.90
5200;DHT22;2619;47.868;11.892;2022-12-10T15:55:13;0.70;99.90
5200;DHT22;2619;47.868;11.892;2022-12-10T15:57:40;0.70;99.90
5200;DHT22;2619;47.868;11.892;2022-12-10T16:00:20;0.70;99.90
5200;DHT22;2619;47.868;11.892;2022-12-10T16:03:05;0.70;99.90
5200;DHT22;2619;47.868;11.892;2022-12-10T16:05:36;0.70;99.90
5200;DHT22;2619;47.868;11.892;2022-12-10T16:10:34;0.70;99.90
5200;DHT22;2619;47.868;11.892;2022-12-10T16:13:09;0.80;99.90
5200;DHT22;2619;47.868;11.892;2022-12-10T16:15:59;0.70;99.90
5200;DHT22;2619;47.868;11.892;2022-12-10T16:18:26;0.80;99.90
5200;DHT22;2619;47.868;11.892;2022-12-10T16:20:51;0.80;99.90
5200;DHT22;2619;47.868;11.892;2022-12-10T16:23:17;0.80;99.90
5200;DHT22;2619;47.868;11.892;2022-12-10T16:25:43;0.80;99.90
5200;DHT22;2619;47.868;11.892;2022-12-10T16:28:15;0.70;99.90
5200;DHT22;2619;47.868;11.892;2022-12-10T16:30:51;0.70;99.90
5200;DHT22;2619;47.868;11.892;2022-12-10T16:33:18;0.70;99.90
5200;DHT22;2619;47.868;11.892;2022-12-10T16:35:45;0.70;99.90
5200;DHT22;2619;47.868;11.892;2022-12-10T16:38:11;0.70;99.90
5200;DHT22;2619;47.868;11.892;2022-12-10T16:40:38;0.70;99.90
5200;DHT22;2619;47.868;11.892;2022-12-10T16:43:04;0.70;99.90
5200;DHT22;2619;47.868;11.892;2022-12-10T16:45:34;0.70;99.90
5200;DHT22;2619;47.868;11.892;2022-12-10T16:48:00;0.70;99.90
5200;DHT22;2619;47.868;11.892;2022-12-10T16:50:26;0.70;99.90
5200;DHT22;2619;47.868;11.892;2022-12-10T16:52:52;0.70;99.90
5200;DHT22;2619;47.868;11.892;2022-12-10T16:55:22;0.60;99.90
5200;DHT22;2619;47.868;11.892;2022-12-10T16:57:48;0.70;99.90
5200;DHT22;2619;47.868;11.892;2022-12-10T17:00:19;0.60;99.90
5200;DHT22;2619;47.868;11.892;2022-12-10T17:02:45;0.70;99.90
5200;DHT22;2619;47.868;11.892;2022-12-10T17:05:29;0.60;99.90
5200;DHT22;2619;47.868;11.892;2022-12-10T17:07:54;0.70;99.90
5200;DHT22;2619;47.868;11.892;2022-12-10T17:10:20;0.60;99.90
5200;DHT22;2619;47.868;11.892;2022-12-10T17:13:11;0.70;99.90
5200;DHT22;2619;47.868;11.892;2022-12-10T17:15:38;0.60;99.90
5200;DHT22;2619;47.868;11.892;2022-12-10T17:18:04;0.60;99.90
5200;DHT22;2619;47.868;11.892;2022-12-10T17:20:30;0.60;99.90
5200;DHT22;2619;47.868;11.892;2022-12-10T17:22:55;0.60;99.90
5200;DHT22;2619;47.868;11.892;2022-12-10T17:25:21;0.60;99.90
5200;DHT22;2619;47.868;11.892;2022-12-10T17:27:47;0.60;99.90
5200;DHT22;2619;47.868;11.892;2022-12-10T17:30:14;0.60;99.90
5200;DHT22;2619;47.868;11.892;2022-12-10T17:32:41;0.60;99.90
5200;DHT22;2619;47.868;11.892;2022-12-10T17:35:07;0.60;99.90
5200;DHT22;2619;47.868;11.892;2022-12-10T17:37:37;0.60;99.90
5200;DHT22;2619;47.868;11.892;2022-12-10T17:40:12;0.60;99.90
5200;DHT22;2619;47.868;11.892;2022-12-10T17:42:38;0.60;99.90
5200;DHT22;2619;47.868;11.892;2022-12-10T17:45:04;0.60;99.90
5200;DHT22;2619;47.868;11.892;2022-12-10T17:47:29;0.60;99.90
5200;DHT22;2619;47.868;11.892;2022-12-10T17:49:57;0.70;99.90
5200;DHT22;2619;47.868;11.892;2022-12-10T17:52:23;0.70;99.90
5200;DHT22;2619;47.868;11.892;2022-12-10T17:54:49;0.70;99.90
5200;DHT22;2619;47.868;11.892;2022-12-10T17:57:19;0.70;99.90
5200;DHT22;2619;47.868;11.892;2022-12-10T17:59:45;0.70;99.90
5200;DHT22;2619;47.868;11.892;2022-12-10T18:02:11;0.60;99.90
5200;DHT22;2619;47.868;11.892;2022-12-10T18:04:37;0.60;99.90
5200;DHT22;2619;47.868;11.892;2022-12-10T18:07:11;0.60;99.90
5200;DHT22;2619;47.868;11.892;2022-12-10T18:09:37;0.60;99.90
5200;DHT22;2619;47.868;11.892;2022-12-10T18:12:03;0.60;99.90
5200;DHT22;2619;47.868;11.892;2022-12-10T18:14:28;0.50;99.90
5200;DHT22;2619;47.868;11.892;2022-12-10T18:16:54;0.60;99.90